createdAt,value
2018-12-18T00:02:00.501Z,85.67
2018-12-18T00:04:29.221Z,85.87
2018-12-18T00:06:58.275Z,86.43
2018-12-18T00:09:27.049Z,86.43
2018-12-18T00:11:59.256Z,86.54
2018-12-18T00:14:26.597Z,86.46
2018-12-18T00:16:55.419Z,87.41
2018-12-18T00:19:24.241Z,87.13
2018-12-18T00:21:52.994Z,87.48
2018-12-18T00:24:22.019Z,87.84
2018-12-18T00:26:50.883Z,87.56
2018-12-18T00:29:20.044Z,87.38
2018-12-18T00:31:48.859Z,87.26
2018-12-18T00:34:18.024Z,87.52
2018-12-18T00:36:46.669Z,87.53
2018-12-18T00:39:15.935Z,87.18
2018-12-18T00:41:44.912Z,87.18
2018-12-18T00:44:13.762Z,86.95
2018-12-18T00:46:42.685Z,86.83
2018-12-18T00:49:11.704Z,86.98
2018-12-18T00:51:40.452Z,86.95
2018-12-18T00:54:09.345Z,86.87
2018-12-18T00:56:38.448Z,86.37
2018-12-18T00:59:07.335Z,86.44
2018-12-18T01:01:36.105Z,86.75
2018-12-18T01:04:05.034Z,86.63
2018-12-18T01:06:34.361Z,86.57
2018-12-18T01:09:09.301Z,86.92
2018-12-18T01:11:38.012Z,86.84
2018-12-18T01:14:06.973Z,86.89
2018-12-18T01:16:35.767Z,86.87
2018-12-18T01:19:04.660Z,86.78
2018-12-18T01:21:33.555Z,87.01
2018-12-18T01:24:02.343Z,87.22
2018-12-18T01:26:31.263Z,86.90
2018-12-18T01:29:00.834Z,86.73
2018-12-18T01:31:29.618Z,87.00
2018-12-18T01:33:59.425Z,86.69
2018-12-18T01:36:28.326Z,86.60
2018-12-18T01:38:57.180Z,86.44
2018-12-18T01:41:25.904Z,86.24
2018-12-18T01:43:54.680Z,86.21
2018-12-18T01:46:23.613Z,86.44
2018-12-18T01:48:52.786Z,86.29
2018-12-18T01:51:22.056Z,86.12
2018-12-18T01:53:51.058Z,86.25
2018-12-18T01:56:20.097Z,86.10
2018-12-18T01:58:49.693Z,86.42
2018-12-18T02:01:18.383Z,86.37
2018-12-18T02:03:47.137Z,86.38
2018-12-18T02:06:15.858Z,86.13
2018-12-18T02:08:45.032Z,86.22
2018-12-18T02:11:13.942Z,86.16
2018-12-18T02:13:43.008Z,86.25
2018-12-18T02:16:12.037Z,86.22
2018-12-18T02:18:40.753Z,86.07
2018-12-18T02:21:09.483Z,86.01
2018-12-18T02:23:38.300Z,85.79
2018-12-18T02:26:07.202Z,85.86
2018-12-18T02:28:36.311Z,86.07
2018-12-18T02:31:05.423Z,85.75
2018-12-18T02:33:34.121Z,85.81
2018-12-18T02:36:02.867Z,85.97
2018-12-18T02:38:31.928Z,86.07
2018-12-18T02:41:00.859Z,86.15
2018-12-18T02:43:29.601Z,85.91
2018-12-18T02:45:58.551Z,85.98
2018-12-18T02:48:27.461Z,85.86
2018-12-18T02:50:56.531Z,86.29
2018-12-18T02:53:25.218Z,86.02
2018-12-18T02:55:54.455Z,86.26
2018-12-18T02:58:23.499Z,86.23
2018-12-18T03:00:52.580Z,86.25
2018-12-18T03:03:21.702Z,86.14
2018-12-18T03:05:50.608Z,86.07
2018-12-18T03:08:19.662Z,86.07
2018-12-18T03:10:49.004Z,86.05
2018-12-18T03:13:17.835Z,86.20
2018-12-18T03:15:46.642Z,85.97
2018-12-18T03:18:15.844Z,85.99
2018-12-18T03:20:44.875Z,85.64
2018-12-18T03:23:13.778Z,85.90
2018-12-18T03:25:42.755Z,85.88
2018-12-18T03:28:11.694Z,85.97
2018-12-18T03:30:40.421Z,86.19
2018-12-18T03:33:09.584Z,86.37
2018-12-18T03:35:38.637Z,86.16
2018-12-18T03:38:07.403Z,86.46
2018-12-18T03:40:36.202Z,86.01
2018-12-18T03:43:05.063Z,86.00
2018-12-18T03:45:34.105Z,86.20
2018-12-18T03:48:03.014Z,85.90
2018-12-18T03:50:31.728Z,85.96
2018-12-18T03:53:00.484Z,86.05
2018-12-18T03:55:29.205Z,86.76
2018-12-18T03:57:58.051Z,86.63
2018-12-18T04:00:33.555Z,86.47
2018-12-18T04:03:02.509Z,86.69
2018-12-18T04:05:31.524Z,86.59
2018-12-18T04:08:00.367Z,86.42
2018-12-18T04:10:29.580Z,86.92
2018-12-18T04:12:58.493Z,86.79
2018-12-18T04:15:27.522Z,86.61
2018-12-18T04:17:56.990Z,86.89
2018-12-18T04:20:26.101Z,86.71
2018-12-18T04:22:55.059Z,86.51
2018-12-18T04:25:23.866Z,86.42
2018-12-18T04:27:53.077Z,86.54
2018-12-18T04:30:22.167Z,86.50
2018-12-18T04:32:51.605Z,86.53
2018-12-18T04:35:20.323Z,86.30
2018-12-18T04:37:48.999Z,86.34
2018-12-18T04:40:17.869Z,86.30
2018-12-18T04:42:46.940Z,86.31
2018-12-18T04:45:15.845Z,85.92
2018-12-18T04:47:45.111Z,86.25
2018-12-18T04:50:14.212Z,86.21
2018-12-18T04:52:43.416Z,86.06
2018-12-18T04:55:12.426Z,86.33
2018-12-18T04:57:41.337Z,86.01
2018-12-18T05:00:10.810Z,86.20
2018-12-18T05:02:40.117Z,85.99
2018-12-18T05:05:08.977Z,85.90
2018-12-18T05:07:37.738Z,85.97
2018-12-18T05:10:06.950Z,85.58
2018-12-18T05:12:36.608Z,85.65
2018-12-18T05:15:06.334Z,85.79
2018-12-18T05:17:35.568Z,85.55
2018-12-18T05:20:04.577Z,85.58
2018-12-18T05:22:33.295Z,85.56
2018-12-18T05:25:02.064Z,85.71
2018-12-18T05:27:30.821Z,86.06
2018-12-18T05:29:59.635Z,86.01
2018-12-18T05:32:28.434Z,86.11
2018-12-18T05:34:57.261Z,86.33
2018-12-18T05:37:26.277Z,86.21
2018-12-18T05:39:55.130Z,86.00
2018-12-18T05:42:23.865Z,86.01
2018-12-18T05:44:52.752Z,86.02
2018-12-18T05:47:21.403Z,86.13
2018-12-18T05:49:50.194Z,86.21
2018-12-18T05:52:19.191Z,86.32
2018-12-18T05:54:48.080Z,86.39
2018-12-18T05:57:17.280Z,86.50
2018-12-18T05:59:46.971Z,86.55
2018-12-18T06:02:15.686Z,86.55
2018-12-18T06:04:44.646Z,86.53
2018-12-18T06:07:13.872Z,86.37
2018-12-18T06:09:42.622Z,86.55
2018-12-18T06:12:11.743Z,86.59
2018-12-18T06:14:40.400Z,86.47
2018-12-18T06:17:09.131Z,86.21
2018-12-18T06:19:38.390Z,86.20
2018-12-18T06:22:07.333Z,86.24
2018-12-18T06:24:36.626Z,86.24
2018-12-18T06:27:05.628Z,86.22
2018-12-18T06:29:34.703Z,86.13
2018-12-18T06:32:03.419Z,86.18
2018-12-18T06:34:32.145Z,86.18
2018-12-18T06:37:00.884Z,86.19
2018-12-18T06:39:29.886Z,86.12
2018-12-18T06:41:58.887Z,86.17
2018-12-18T06:44:28.019Z,86.33
2018-12-18T06:46:57.073Z,86.08
2018-12-18T06:49:25.892Z,86.08
2018-12-18T06:51:54.772Z,86.01
2018-12-18T06:54:23.506Z,86.05
2018-12-18T06:56:52.323Z,85.78
2018-12-18T06:59:21.223Z,85.87
2018-12-18T07:01:50.194Z,85.52
2018-12-18T07:04:19.303Z,85.74
2018-12-18T07:06:48.362Z,85.09
2018-12-18T07:09:17.595Z,85.19
2018-12-18T07:11:46.515Z,85.08
2018-12-18T07:14:15.578Z,84.97
2018-12-18T07:16:44.370Z,84.92
2018-12-18T07:19:13.257Z,84.83
2018-12-18T07:21:42.079Z,84.91
2018-12-18T07:24:13.992Z,84.71
2018-12-18T07:26:41.914Z,84.81
2018-12-18T07:29:10.711Z,84.91
2018-12-18T07:31:39.801Z,84.66
2018-12-18T07:34:09.314Z,84.71
2018-12-18T07:36:38.423Z,84.98
2018-12-18T07:39:09.007Z,84.81
2018-12-18T07:41:37.694Z,84.53
2018-12-18T07:44:06.459Z,84.27
2018-12-18T07:46:35.597Z,84.39
2018-12-18T07:49:04.676Z,84.03
2018-12-18T07:51:33.467Z,84.16
2018-12-18T07:54:02.496Z,84.19
2018-12-18T07:56:31.699Z,84.14
2018-12-18T07:59:00.503Z,84.08
2018-12-18T08:01:29.218Z,84.21
2018-12-18T08:03:57.925Z,84.63
2018-12-18T08:06:26.843Z,84.41
2018-12-18T08:08:55.730Z,84.62
2018-12-18T08:11:24.839Z,84.48
2018-12-18T08:13:53.731Z,84.16
2018-12-18T08:16:22.556Z,84.51
2018-12-18T08:18:51.528Z,84.34
2018-12-18T08:21:20.252Z,84.48
2018-12-18T08:23:49.401Z,84.58
2018-12-18T08:26:18.884Z,84.10
2018-12-18T08:28:47.897Z,84.23
2018-12-18T08:31:16.580Z,84.24
2018-12-18T08:33:45.583Z,84.35
2018-12-18T08:36:14.659Z,84.07
2018-12-18T08:38:43.726Z,84.22
2018-12-18T08:41:12.464Z,84.30
2018-12-18T08:43:41.475Z,84.06
2018-12-18T08:46:10.502Z,83.90
2018-12-18T08:48:39.573Z,83.81
2018-12-18T08:51:08.236Z,83.67
2018-12-18T08:53:37.334Z,83.63
2018-12-18T08:56:06.373Z,83.68
2018-12-18T08:58:35.229Z,83.79
2018-12-18T09:01:04.728Z,83.41
2018-12-18T09:03:33.835Z,83.42
2018-12-18T09:06:02.510Z,83.71
2018-12-18T09:08:31.773Z,83.62
2018-12-18T09:11:00.933Z,83.55
2018-12-18T09:13:30.162Z,83.45
2018-12-18T09:15:59.191Z,83.34
2018-12-18T09:18:28.130Z,83.68
2018-12-18T09:20:56.940Z,83.44
2018-12-18T09:23:25.777Z,83.57
2018-12-18T09:25:54.804Z,83.48
2018-12-18T09:28:23.494Z,83.04
2018-12-18T09:30:52.310Z,83.33
2018-12-18T09:33:22.015Z,83.50
2018-12-18T09:35:51.023Z,83.16
2018-12-18T09:38:24.967Z,83.16
2018-12-18T09:40:59.111Z,83.27
2018-12-18T09:43:33.198Z,83.32
2018-12-18T09:46:02.148Z,83.35
2018-12-18T09:48:31.369Z,83.23
2018-12-18T09:51:00.158Z,83.05
2018-12-18T09:53:29.174Z,83.18
2018-12-18T09:55:58.043Z,83.12
2018-12-18T09:58:27.509Z,83.41
2018-12-18T10:00:56.934Z,83.44
2018-12-18T10:03:25.974Z,83.25
2018-12-18T10:05:56.454Z,83.55
2018-12-18T10:08:25.981Z,83.23
2018-12-18T10:10:55.199Z,83.39
2018-12-18T10:13:24.485Z,83.16
2018-12-18T10:15:53.195Z,83.46
2018-12-18T10:18:22.422Z,83.35
2018-12-18T10:20:51.293Z,83.28
2018-12-18T10:23:19.901Z,83.32
2018-12-18T10:25:49.353Z,83.91
2018-12-18T10:28:18.056Z,83.64
2018-12-18T10:30:46.931Z,83.72
2018-12-18T10:33:16.448Z,83.82
2018-12-18T10:35:45.468Z,83.83
2018-12-18T10:38:14.313Z,83.90
2018-12-18T10:40:43.224Z,83.78
2018-12-18T10:43:11.976Z,83.94
2018-12-18T10:45:41.082Z,84.08
2018-12-18T10:48:09.843Z,84.12
2018-12-18T10:50:39.749Z,84.23
2018-12-18T10:53:08.514Z,84.42
2018-12-18T10:55:37.214Z,84.68
2018-12-18T10:58:06.092Z,84.42
2018-12-18T11:00:40.236Z,84.67
2018-12-18T11:03:09.093Z,84.69
2018-12-18T11:05:38.116Z,84.73
2018-12-18T11:08:07.103Z,84.65
2018-12-18T11:10:35.809Z,84.88
2018-12-18T11:13:10.231Z,84.71
2018-12-18T11:15:38.908Z,84.90
2018-12-18T11:18:07.675Z,84.78
2018-12-18T11:20:36.351Z,85.01
2018-12-18T11:23:05.257Z,84.87
2018-12-18T11:25:34.125Z,84.90
2018-12-18T11:28:03.183Z,85.14
2018-12-18T11:30:32.020Z,84.72
2018-12-18T11:33:01.152Z,84.66
2018-12-18T11:35:29.995Z,84.84
2018-12-18T11:37:59.705Z,84.98
2018-12-18T11:40:28.735Z,84.77
2018-12-18T11:42:58.034Z,84.59
2018-12-18T11:45:26.800Z,84.68
2018-12-18T11:47:55.624Z,84.99
2018-12-18T11:50:24.295Z,84.70
2018-12-18T11:52:53.145Z,85.04
2018-12-18T11:55:22.132Z,84.66
2018-12-18T11:57:51.048Z,84.66
2018-12-18T12:00:20.272Z,84.40
2018-12-18T12:02:49.524Z,84.82
2018-12-18T12:05:18.298Z,84.74
2018-12-18T12:07:47.209Z,85.03
2018-12-18T12:10:15.949Z,84.75
2018-12-18T12:12:45.966Z,84.92
2018-12-18T12:15:15.337Z,84.73
2018-12-18T12:17:44.359Z,84.81
2018-12-18T12:20:13.113Z,84.98
2018-12-18T12:22:42.178Z,84.96
2018-12-18T12:25:11.576Z,85.00
2018-12-18T12:27:45.500Z,85.13
2018-12-18T12:30:14.201Z,84.71
2018-12-18T12:32:43.188Z,85.16
2018-12-18T12:35:12.565Z,84.52
2018-12-18T12:37:41.448Z,84.71
2018-12-18T12:40:10.583Z,84.67
2018-12-18T12:42:39.601Z,84.79
2018-12-18T12:45:08.507Z,84.54
2018-12-18T12:47:37.497Z,84.71
2018-12-18T12:50:07.355Z,84.44
2018-12-18T12:52:36.948Z,84.92
2018-12-18T12:55:06.566Z,84.60
2018-12-18T12:57:35.252Z,84.46
2018-12-18T13:00:04.664Z,84.63
2018-12-18T13:02:33.488Z,84.63
2018-12-18T13:05:02.870Z,84.66
2018-12-18T13:07:32.048Z,84.65
2018-12-18T13:10:00.909Z,84.63
2018-12-18T13:12:30.868Z,84.84
2018-12-18T13:15:00.428Z,84.83
2018-12-18T13:17:29.398Z,84.96
2018-12-18T13:19:58.146Z,84.82
2018-12-18T13:22:27.424Z,84.93
2018-12-18T13:24:56.331Z,84.79
2018-12-18T13:27:26.285Z,84.80
2018-12-18T13:29:55.636Z,85.19
2018-12-18T13:32:24.370Z,85.15
2018-12-18T13:34:53.480Z,85.15
2018-12-18T13:37:22.471Z,85.01
2018-12-18T13:39:51.301Z,85.33
2018-12-18T13:42:20.011Z,85.36
2018-12-18T13:44:49.419Z,85.57
2018-12-18T13:47:18.621Z,85.19
2018-12-18T13:49:47.621Z,85.47
2018-12-18T13:52:16.434Z,85.22
2018-12-18T13:54:45.440Z,85.49
2018-12-18T13:57:14.526Z,85.74
2018-12-18T13:59:44.050Z,85.44
2018-12-18T14:02:13.473Z,85.35
2018-12-18T14:04:42.915Z,85.59
2018-12-18T14:07:11.927Z,85.98
2018-12-18T14:09:41.055Z,85.72
2018-12-18T14:12:10.131Z,85.46
2018-12-18T14:14:39.046Z,85.58
2018-12-18T14:17:07.905Z,86.21
2018-12-18T14:19:36.719Z,85.91
2018-12-18T14:22:05.905Z,85.45
2018-12-18T14:24:34.856Z,85.65
2018-12-18T14:27:04.145Z,85.73
2018-12-18T14:29:32.982Z,86.10
2018-12-18T14:32:01.881Z,85.72
2018-12-18T14:34:31.196Z,85.83
2018-12-18T14:37:00.392Z,86.17
2018-12-18T14:39:29.650Z,85.89
2018-12-18T14:41:58.896Z,85.81
2018-12-18T14:44:28.842Z,86.16
2018-12-18T14:46:57.624Z,85.80
2018-12-18T14:49:27.096Z,85.99
2018-12-18T14:51:56.098Z,85.99
2018-12-18T14:54:24.913Z,85.71
2018-12-18T14:56:54.419Z,85.97
2018-12-18T14:59:24.194Z,86.09
2018-12-18T15:01:53.485Z,85.43
2018-12-18T15:04:22.596Z,85.85
2018-12-18T15:06:51.594Z,85.61
2018-12-18T15:09:20.900Z,85.49
2018-12-18T15:11:50.370Z,85.84
2018-12-18T15:14:19.232Z,85.74
2018-12-18T15:16:48.251Z,85.84
2018-12-18T15:19:17.096Z,85.42
2018-12-18T15:21:46.008Z,85.21
2018-12-18T15:24:15.219Z,85.29
2018-12-18T15:26:44.313Z,85.29
2018-12-18T15:29:13.369Z,85.47
2018-12-18T15:31:42.662Z,85.59
2018-12-18T15:34:12.088Z,85.32
2018-12-18T15:36:41.273Z,85.30
2018-12-18T15:39:10.340Z,85.38
2018-12-18T15:41:39.115Z,85.19
2018-12-18T15:44:08.362Z,85.24
2018-12-18T15:46:37.552Z,85.06
2018-12-18T15:49:06.300Z,85.05
2018-12-18T15:51:35.196Z,85.02
2018-12-18T15:54:04.238Z,85.22
2018-12-18T15:56:33.596Z,84.95
2018-12-18T15:59:02.786Z,85.16
2018-12-18T16:01:31.521Z,85.29
2018-12-18T16:04:00.882Z,85.21
2018-12-18T16:06:30.026Z,85.31
2018-12-18T16:08:59.491Z,85.17
2018-12-18T16:11:28.240Z,85.28
2018-12-18T16:13:57.003Z,85.49
2018-12-18T16:16:26.066Z,85.43
2018-12-18T16:18:55.076Z,85.54
2018-12-18T16:21:24.169Z,85.52
2018-12-18T16:23:53.042Z,85.62
2018-12-18T16:26:21.862Z,85.59
2018-12-18T16:28:50.716Z,85.77
2018-12-18T16:31:19.595Z,85.44
2018-12-18T16:33:49.029Z,85.50
2018-12-18T16:36:17.806Z,85.72
2018-12-18T16:38:46.534Z,85.61
2018-12-18T16:41:15.548Z,85.71
2018-12-18T16:43:44.345Z,85.72
2018-12-18T16:46:13.192Z,85.67
2018-12-18T16:48:41.909Z,85.57
2018-12-18T16:51:10.986Z,85.71
2018-12-18T16:53:39.851Z,85.60
2018-12-18T16:56:08.497Z,85.71
2018-12-18T16:58:37.286Z,85.38
2018-12-18T17:01:06.469Z,85.48
2018-12-18T17:03:35.380Z,85.46
2018-12-18T17:06:04.375Z,85.53
2018-12-18T17:08:33.587Z,85.62
2018-12-18T17:11:02.316Z,85.65
2018-12-18T17:13:31.470Z,85.44
2018-12-18T17:16:00.598Z,85.35
2018-12-18T17:18:29.617Z,85.69
2018-12-18T17:20:58.429Z,85.72
2018-12-18T17:23:27.232Z,85.70
2018-12-18T17:25:56.272Z,85.81
2018-12-18T17:28:25.232Z,85.96
2018-12-18T17:30:54.006Z,85.69
2018-12-18T17:33:22.925Z,85.90
2018-12-18T17:35:52.078Z,86.09
2018-12-18T17:38:21.286Z,86.10
2018-12-18T17:40:50.357Z,86.05
2018-12-18T17:43:19.903Z,86.00
2018-12-18T17:45:49.064Z,86.05
2018-12-18T17:48:17.870Z,85.94
2018-12-18T17:50:46.739Z,86.22
2018-12-18T17:53:15.615Z,85.94
2018-12-18T17:55:44.486Z,86.73
2018-12-18T17:58:13.205Z,86.15
2018-12-18T18:00:42.276Z,86.17
2018-12-18T18:03:10.956Z,86.21
2018-12-18T18:05:40.285Z,86.29
2018-12-18T18:08:09.171Z,86.32
2018-12-18T18:10:38.080Z,86.08
2018-12-18T18:13:06.852Z,86.34
2018-12-18T18:15:36.053Z,86.49
2018-12-18T18:18:05.264Z,86.46
2018-12-18T18:20:34.148Z,86.39
2018-12-18T18:23:03.199Z,86.49
2018-12-18T18:25:32.040Z,86.47
2018-12-18T18:28:01.392Z,86.14
2018-12-18T18:30:30.211Z,86.39
2018-12-18T18:32:58.973Z,86.38
2018-12-18T18:35:27.918Z,86.39
2018-12-18T18:37:57.037Z,86.15
2018-12-18T18:40:26.282Z,86.06
2018-12-18T18:42:55.064Z,86.02
2018-12-18T18:45:23.848Z,86.02
2018-12-18T18:47:52.621Z,86.08
2018-12-18T18:50:21.628Z,86.14
2018-12-18T18:52:50.460Z,86.22
2018-12-18T18:55:19.461Z,86.65
2018-12-18T18:57:48.290Z,86.52
2018-12-18T19:00:17.012Z,86.63
2018-12-18T19:02:48.218Z,86.60
2018-12-18T19:05:17.256Z,86.64
2018-12-18T19:07:46.149Z,86.57
2018-12-18T19:10:15.386Z,86.89
2018-12-18T19:12:44.826Z,86.76
2018-12-18T19:15:14.354Z,87.06
2018-12-18T19:17:43.389Z,86.91
2018-12-18T19:20:12.329Z,86.86
2018-12-18T19:22:41.190Z,87.05
2018-12-18T19:25:09.996Z,87.20
2018-12-18T19:27:39.095Z,86.99
2018-12-18T19:30:08.258Z,87.06
2018-12-18T19:32:37.211Z,87.22
2018-12-18T19:35:06.439Z,87.38
2018-12-18T19:37:35.242Z,86.98
2018-12-18T19:40:04.303Z,86.92
2018-12-18T19:42:33.844Z,87.05
2018-12-18T19:45:02.825Z,86.82
2018-12-18T19:47:31.695Z,87.00
2018-12-18T19:50:00.593Z,86.99
2018-12-18T19:52:29.363Z,86.98
2018-12-18T19:54:58.107Z,87.21
2018-12-18T19:57:27.146Z,87.05
2018-12-18T19:59:55.957Z,86.91
2018-12-18T20:02:24.878Z,86.97
2018-12-18T20:04:54.173Z,86.82
2018-12-18T20:07:22.962Z,86.95
2018-12-18T20:09:52.122Z,87.00
2018-12-18T20:12:21.300Z,87.15
2018-12-18T20:14:50.622Z,87.02
2018-12-18T20:17:19.649Z,86.91
2018-12-18T20:19:48.669Z,87.10
2018-12-18T20:22:18.019Z,86.91
2018-12-18T20:24:47.389Z,86.96
2018-12-18T20:27:16.245Z,86.75
2018-12-18T20:29:45.640Z,86.87
2018-12-18T20:32:14.563Z,87.02
2018-12-18T20:34:43.585Z,86.96
2018-12-18T20:37:18.078Z,86.99
2018-12-18T20:39:43.554Z,86.92
2018-12-18T20:42:12.472Z,86.85
2018-12-18T20:44:41.453Z,86.91
2018-12-18T20:47:10.536Z,86.82
2018-12-18T20:49:40.839Z,86.84
2018-12-18T20:52:10.090Z,86.71
2018-12-18T20:54:38.993Z,86.82
2018-12-18T20:57:08.560Z,86.53
2018-12-18T20:59:37.770Z,86.48
2018-12-18T21:02:07.127Z,86.45
2018-12-18T21:04:35.928Z,86.47
2018-12-18T21:07:04.827Z,86.42
2018-12-18T21:09:34.258Z,86.20
2018-12-18T21:12:03.434Z,86.29
2018-12-18T21:14:32.284Z,86.21
2018-12-18T21:17:01.439Z,86.17
2018-12-18T21:19:30.325Z,86.12
2018-12-18T21:21:59.971Z,86.01
2018-12-18T21:24:29.363Z,86.05
2018-12-18T21:26:58.185Z,86.43
2018-12-18T21:29:27.061Z,86.37
2018-12-18T21:31:56.095Z,86.33
2018-12-18T21:34:25.064Z,86.23
2018-12-18T21:36:54.116Z,86.38
2018-12-18T21:39:23.265Z,86.10
2018-12-18T21:41:52.249Z,86.44
2018-12-18T21:44:21.310Z,86.41
2018-12-18T21:46:50.618Z,86.08
2018-12-18T21:49:19.652Z,86.03
2018-12-18T21:51:48.753Z,86.06
2018-12-18T21:54:17.968Z,85.87
2018-12-18T21:56:47.095Z,86.08
2018-12-18T21:59:16.666Z,86.06
2018-12-18T22:01:45.500Z,86.03
2018-12-18T22:04:15.009Z,86.26
2018-12-18T22:06:43.735Z,86.28
2018-12-18T22:09:13.038Z,86.33
2018-12-18T22:11:41.898Z,86.28
2018-12-18T22:14:10.803Z,86.27
2018-12-18T22:16:40.221Z,86.24
2018-12-18T22:19:09.211Z,86.30
2018-12-18T22:21:38.200Z,86.30
2018-12-18T22:24:07.142Z,86.46
2018-12-18T22:26:36.008Z,86.52
2018-12-18T22:29:05.031Z,86.65
2018-12-18T22:31:33.893Z,86.71
2018-12-18T22:34:03.180Z,86.92
2018-12-18T22:36:32.354Z,86.78
2018-12-18T22:39:01.439Z,86.99
2018-12-18T22:41:30.333Z,86.81
2018-12-18T22:43:59.463Z,86.90
2018-12-18T22:46:28.441Z,86.87
2018-12-18T22:48:58.373Z,86.72
2018-12-18T22:51:27.243Z,86.58
2018-12-18T22:53:56.169Z,86.46
2018-12-18T22:56:25.373Z,86.63
2018-12-18T22:58:54.378Z,86.37
2018-12-18T23:01:28.769Z,86.26
2018-12-18T23:03:57.561Z,86.31
2018-12-18T23:06:26.495Z,86.29
2018-12-18T23:08:55.512Z,86.04
2018-12-18T23:11:25.498Z,86.23
2018-12-18T23:13:54.500Z,86.28
2018-12-18T23:16:24.029Z,86.29
2018-12-18T23:18:53.262Z,85.90
2018-12-18T23:21:21.951Z,86.05
2018-12-18T23:23:51.153Z,85.93
2018-12-18T23:26:20.127Z,85.82
2018-12-18T23:28:48.833Z,85.51
2018-12-18T23:31:17.959Z,85.59
2018-12-18T23:33:46.888Z,85.98
2018-12-18T23:36:15.676Z,86.04
2018-12-18T23:38:44.696Z,86.27
2018-12-18T23:41:13.570Z,86.08
2018-12-18T23:43:42.346Z,85.94
2018-12-18T23:46:11.096Z,86.03
2018-12-18T23:48:40.247Z,86.19
2018-12-18T23:51:09.556Z,86.43
2018-12-18T23:53:38.828Z,86.45
2018-12-18T23:56:07.934Z,86.49
2018-12-18T23:58:36.939Z,86.56
